createdAt,value
2022-10-11T00:01:55.881Z,1.10
2022-10-11T00:04:22.375Z,1.40
2022-10-11T00:06:48.959Z,1.63
2022-10-11T00:09:16.244Z,1.23
2022-10-11T00:11:42.974Z,1.48
2022-10-11T00:14:09.619Z,1.33
2022-10-11T00:16:38.605Z,1.65
2022-10-11T00:19:05.205Z,1.50
2022-10-11T00:21:31.887Z,1.60
2022-10-11T00:23:58.376Z,1.55
2022-10-11T00:26:24.928Z,2.08
2022-10-11T00:28:52.386Z,1.73
2022-10-11T00:31:19.020Z,2.08
2022-10-11T00:33:45.583Z,1.85
2022-10-11T00:36:14.790Z,1.50
2022-10-11T00:38:41.281Z,1.30
2022-10-11T00:41:07.917Z,2.30
2022-10-11T00:43:34.862Z,1.08
2022-10-11T00:46:05.877Z,1.65
2022-10-11T00:48:47.082Z,1.17
2022-10-11T00:51:20.139Z,1.55
2022-10-11T00:53:48.894Z,1.65
2022-10-11T00:56:33.894Z,1.58
2022-10-11T00:59:03.122Z,1.20
2022-10-11T01:01:29.718Z,1.75
2022-10-11T01:03:57.008Z,1.77
2022-10-11T01:06:23.753Z,1.63
2022-10-11T01:08:50.870Z,1.60
2022-10-11T01:11:20.488Z,1.88
2022-10-11T01:14:01.896Z,1.90
2022-10-11T01:16:39.354Z,0.93
2022-10-11T01:19:44.467Z,1.50
2022-10-11T01:22:22.937Z,1.67
2022-10-11T01:25:06.886Z,1.83
2022-10-11T01:28:05.775Z,2.45
2022-10-11T01:30:33.757Z,1.25
2022-10-11T01:33:09.108Z,2.08
2022-10-11T01:35:42.173Z,1.75
2022-10-11T01:38:17.351Z,1.73
2022-10-11T01:40:57.159Z,1.98
2022-10-11T01:43:24.354Z,2.60
2022-10-11T01:45:52.852Z,1.75
2022-10-11T01:48:19.672Z,2.00
2022-10-11T01:50:51.395Z,1.50
2022-10-11T01:53:38.119Z,2.00
2022-10-11T01:56:23.209Z,1.85
2022-10-11T01:59:08.594Z,1.73
2022-10-11T02:01:44.544Z,1.05
2022-10-11T02:04:27.184Z,1.55
2022-10-11T02:07:06.962Z,1.17
2022-10-11T02:09:38.121Z,1.33
2022-10-11T02:12:10.477Z,1.80
2022-10-11T02:14:44.321Z,1.63
2022-10-11T02:17:18.124Z,1.85
2022-10-11T02:19:47.914Z,1.42
2022-10-11T02:22:28.436Z,1.88
2022-10-11T02:24:57.869Z,1.73
2022-10-11T02:27:28.027Z,1.70
2022-10-11T02:29:56.179Z,1.23
2022-10-11T02:32:24.366Z,1.40
2022-10-11T02:34:55.690Z,1.50
2022-10-11T02:37:34.050Z,1.90
2022-10-11T02:40:26.438Z,1.70
2022-10-11T02:42:59.848Z,3.40
2022-10-11T02:45:33.844Z,1.50
2022-10-11T02:48:00.991Z,2.00
2022-10-11T02:50:27.835Z,1.38
2022-10-11T02:52:54.587Z,2.20
2022-10-11T02:55:21.223Z,2.22
2022-10-11T02:57:47.797Z,1.55
2022-10-11T03:00:14.849Z,2.60
2022-10-11T03:02:41.540Z,2.40
2022-10-11T03:05:08.693Z,1.50
2022-10-11T03:07:35.361Z,1.45
2022-10-11T03:10:02.592Z,1.65
2022-10-11T03:12:29.235Z,1.77
2022-10-11T03:14:55.876Z,2.05
2022-10-11T03:17:36.235Z,1.42
2022-10-11T03:20:05.281Z,2.08
2022-10-11T03:22:31.847Z,1.90
2022-10-11T03:25:03.407Z,1.92
2022-10-11T03:27:30.954Z,1.55
2022-10-11T03:29:57.968Z,1.98
2022-10-11T03:32:24.679Z,2.42
2022-10-11T03:34:51.173Z,1.80
2022-10-11T03:37:18.334Z,1.58
2022-10-11T03:39:45.869Z,1.83
2022-10-11T03:42:13.249Z,1.95
2022-10-11T03:44:40.115Z,1.90
2022-10-11T03:47:06.720Z,1.85
2022-10-11T03:49:33.258Z,1.52
2022-10-11T03:51:59.942Z,2.60
2022-10-11T03:54:26.448Z,2.63
2022-10-11T03:56:53.119Z,2.20
2022-10-11T03:59:19.712Z,2.35
2022-10-11T04:01:46.267Z,2.30
2022-10-11T04:04:12.857Z,2.10
2022-10-11T04:06:39.426Z,2.28
2022-10-11T04:09:05.958Z,1.65
2022-10-11T04:11:32.864Z,2.67
2022-10-11T04:13:59.541Z,2.90
2022-10-11T04:16:26.147Z,2.78
2022-10-11T04:18:52.780Z,2.45
2022-10-11T04:21:19.353Z,2.20
2022-10-11T04:23:45.820Z,2.50
2022-10-11T04:26:12.316Z,1.80
2022-10-11T04:28:38.990Z,2.40
2022-10-11T04:31:09.557Z,2.75
2022-10-11T04:33:36.048Z,2.88
2022-10-11T04:36:03.332Z,2.83
2022-10-11T04:38:30.110Z,2.33
2022-10-11T04:41:06.039Z,2.45
2022-10-11T04:43:32.510Z,2.80
2022-10-11T04:45:59.066Z,3.30
2022-10-11T04:48:25.755Z,2.03
2022-10-11T04:50:52.323Z,2.33
2022-10-11T04:53:19.091Z,2.53
2022-10-11T04:56:04.144Z,3.30
2022-10-11T04:58:32.296Z,2.72
2022-10-11T05:00:59.246Z,3.60
2022-10-11T05:03:26.762Z,2.35
2022-10-11T05:05:54.728Z,2.38
2022-10-11T05:08:23.411Z,2.53
2022-10-11T05:11:07.432Z,2.70
2022-10-11T05:13:35.694Z,2.88
2022-10-11T05:16:06.935Z,3.03
2022-10-11T05:18:36.545Z,3.00
2022-10-11T05:21:19.198Z,2.90
2022-10-11T05:23:47.190Z,3.17
2022-10-11T05:26:16.555Z,3.13
2022-10-11T05:28:43.585Z,2.88
2022-10-11T05:31:10.678Z,3.15
2022-10-11T05:33:37.371Z,3.58
2022-10-11T05:36:04.646Z,2.55
2022-10-11T05:38:31.403Z,2.65
2022-10-11T05:41:02.097Z,2.83
2022-10-11T05:43:29.499Z,3.45
2022-10-11T05:45:56.268Z,2.63
2022-10-11T05:48:24.139Z,3.05
2022-10-11T05:50:50.646Z,2.85
2022-10-11T05:53:17.178Z,2.88
2022-10-11T05:55:44.283Z,3.10
2022-10-11T05:58:14.367Z,3.50
2022-10-11T06:00:41.559Z,3.42
2022-10-11T06:03:08.793Z,2.83
2022-10-11T06:05:35.739Z,2.22
2022-10-11T06:08:03.466Z,3.13
2022-10-11T06:10:30.081Z,2.90
2022-10-11T06:12:56.609Z,3.17
2022-10-11T06:15:23.359Z,2.50
2022-10-11T06:17:49.908Z,2.95
2022-10-11T06:20:16.603Z,3.50
2022-10-11T06:22:43.177Z,2.60
2022-10-11T06:25:09.906Z,3.65
2022-10-11T06:27:36.563Z,3.33
2022-10-11T06:30:03.819Z,3.40
2022-10-11T06:32:30.405Z,3.20
2022-10-11T06:34:57.032Z,3.47
2022-10-11T06:37:23.625Z,3.13
2022-10-11T06:39:50.556Z,2.95
2022-10-11T06:42:17.235Z,3.38
2022-10-11T06:44:43.795Z,3.17
2022-10-11T06:47:10.335Z,2.88
2022-10-11T06:49:36.860Z,3.63
2022-10-11T06:52:03.705Z,3.05
2022-10-11T06:54:30.292Z,3.03
2022-10-11T06:56:56.883Z,2.75
2022-10-11T06:59:23.457Z,3.33
2022-10-11T07:01:49.982Z,3.45
2022-10-11T07:04:16.627Z,2.92
2022-10-11T07:06:43.276Z,2.60
2022-10-11T07:09:09.970Z,3.10
2022-10-11T07:11:36.605Z,3.40
2022-10-11T07:14:07.832Z,2.97
2022-10-11T07:16:36.283Z,2.67
2022-10-11T07:19:04.943Z,2.55
2022-10-11T07:21:33.386Z,3.25
2022-10-11T07:24:00.627Z,2.70
2022-10-11T07:26:28.054Z,2.58
2022-10-11T07:28:54.648Z,2.22
2022-10-11T07:31:23.558Z,2.88
2022-10-11T07:33:50.396Z,2.30
2022-10-11T07:36:16.991Z,2.60
2022-10-11T07:38:46.329Z,2.80
2022-10-11T07:41:13.097Z,2.90
2022-10-11T07:43:39.720Z,2.58
2022-10-11T07:46:07.176Z,2.40
2022-10-11T07:48:35.063Z,2.65
2022-10-11T07:51:06.334Z,2.42
2022-10-11T07:53:32.961Z,2.70
2022-10-11T07:56:01.167Z,3.20
2022-10-11T07:58:27.927Z,2.50
2022-10-11T08:00:54.699Z,2.88
2022-10-11T08:03:21.402Z,2.83
2022-10-11T08:05:48.827Z,2.60
2022-10-11T08:08:15.405Z,2.83
2022-10-11T08:10:42.076Z,3.50
2022-10-11T08:13:08.651Z,3.08
2022-10-11T08:15:35.272Z,3.30
2022-10-11T08:18:01.858Z,3.67
2022-10-11T08:20:28.880Z,2.70
2022-10-11T08:22:55.400Z,2.25
2022-10-11T08:25:21.910Z,2.65
2022-10-11T08:27:48.612Z,3.63
2022-10-11T08:30:15.224Z,2.22
2022-10-11T08:32:41.778Z,2.80
2022-10-11T08:35:11.154Z,2.25
2022-10-11T08:37:37.794Z,2.53
2022-10-11T08:40:05.995Z,2.08
2022-10-11T08:42:39.305Z,2.55
2022-10-11T08:45:12.051Z,2.33
2022-10-11T08:47:41.299Z,2.35
2022-10-11T11:40:30.223Z,2.22
2022-10-11T11:43:05.759Z,1.95
2022-10-11T11:45:47.264Z,1.90
2022-10-11T11:48:19.978Z,3.17
2022-10-11T11:50:53.564Z,1.73
2022-10-11T11:53:28.666Z,1.55
2022-10-11T11:55:56.839Z,1.73
2022-10-11T11:58:53.552Z,1.83
2022-10-11T12:01:38.582Z,2.15
2022-10-11T12:04:16.128Z,1.25
2022-10-11T12:07:04.160Z,2.15
2022-10-11T12:09:30.037Z,1.58
2022-10-11T12:12:06.485Z,2.00
2022-10-11T12:14:32.879Z,1.73
2022-10-11T12:17:20.548Z,1.65
2022-10-11T12:20:04.856Z,1.33
2022-10-11T12:22:31.289Z,1.65
2022-10-11T12:25:13.809Z,1.88
2022-10-11T12:27:48.289Z,1.70
2022-10-11T12:30:42.530Z,1.95
2022-10-11T12:33:31.671Z,1.58
2022-10-11T12:36:07.347Z,1.92
2022-10-11T12:38:41.239Z,1.92
2022-10-11T12:41:10.498Z,1.55
2022-10-11T12:44:07.912Z,2.33
2022-10-11T12:46:40.813Z,1.70
2022-10-11T12:49:27.242Z,1.42
2022-10-11T12:52:20.317Z,1.70
2022-10-11T12:55:02.393Z,1.70
2022-10-11T12:57:50.202Z,1.38
2022-10-11T13:00:28.213Z,1.58
2022-10-11T13:02:56.210Z,1.77
2022-10-11T13:05:26.832Z,2.17
2022-10-11T13:07:55.895Z,2.15
2022-10-11T13:10:31.346Z,1.33
2022-10-11T13:13:01.022Z,1.52
2022-10-11T13:15:28.651Z,1.77
2022-10-11T13:18:02.453Z,1.10
2022-10-11T13:20:31.823Z,1.48
2022-10-11T13:22:58.572Z,1.65
2022-10-11T13:25:28.048Z,2.13
2022-10-11T13:27:56.717Z,1.80
2022-10-11T13:30:32.067Z,2.25
2022-10-11T13:32:59.681Z,1.60
2022-10-11T13:35:32.016Z,1.73
2022-10-11T13:37:58.676Z,1.35
2022-10-11T13:40:25.479Z,1.70
2022-10-11T13:42:54.352Z,1.85
2022-10-11T13:45:30.629Z,1.92
2022-10-11T13:47:57.535Z,1.52
2022-10-11T13:50:35.415Z,1.50
2022-10-11T13:53:11.612Z,1.67
2022-10-11T13:55:54.541Z,1.60
2022-10-11T13:58:41.365Z,1.50
2022-10-11T14:01:18.687Z,1.20
2022-10-11T14:04:05.880Z,1.67
2022-10-11T14:06:58.155Z,1.50
2022-10-11T14:09:30.927Z,1.17
2022-10-11T14:12:38.187Z,1.60
2022-10-11T14:15:23.432Z,1.30
2022-10-11T14:17:51.236Z,2.03
2022-10-11T14:20:22.338Z,1.75
2022-10-11T14:22:52.605Z,1.70
2022-10-11T14:25:20.178Z,1.42
2022-10-11T14:27:47.286Z,2.20
2022-10-11T14:30:26.942Z,1.90
2022-10-11T14:32:57.676Z,1.90
2022-10-11T14:35:26.370Z,1.45
2022-10-11T14:37:53.460Z,1.05
2022-10-11T14:40:26.055Z,1.40
2022-10-11T14:42:52.724Z,1.73
2022-10-11T14:45:21.374Z,1.15
2022-10-11T14:47:48.430Z,1.50
2022-10-11T14:50:26.101Z,1.63
2022-10-11T14:52:53.146Z,1.38
2022-10-11T14:55:20.280Z,1.77
2022-10-11T14:57:46.821Z,2.20
2022-10-11T15:00:22.542Z,1.67
2022-10-11T15:02:50.806Z,2.13
2022-10-11T15:05:17.382Z,2.03
2022-10-11T15:07:45.548Z,1.40
2022-10-11T15:10:18.806Z,1.90
2022-10-11T15:12:45.834Z,1.33
2022-10-11T15:15:16.782Z,2.13
2022-10-11T15:17:43.617Z,1.60
2022-10-11T15:20:17.533Z,1.17
2022-10-11T15:22:44.019Z,1.55
2022-10-11T15:25:10.510Z,2.05
2022-10-11T15:27:38.682Z,1.45
2022-10-11T15:30:18.200Z,1.30
2022-10-11T15:32:44.919Z,1.30
2022-10-11T15:35:11.425Z,2.00
2022-10-11T15:37:37.982Z,1.50
2022-10-11T15:40:17.971Z,1.60
2022-10-11T15:42:44.755Z,1.63
2022-10-11T15:45:11.832Z,1.63
2022-10-11T15:47:38.436Z,1.45
2022-10-11T15:50:14.605Z,1.65
2022-10-11T15:52:42.521Z,1.70
2022-10-11T15:55:08.966Z,1.65
2022-10-11T15:57:35.471Z,1.60
2022-10-11T16:00:02.950Z,1.85
2022-10-11T16:02:29.461Z,1.52
2022-10-11T16:04:55.944Z,2.45
2022-10-11T16:07:22.417Z,2.13
2022-10-11T16:09:48.890Z,1.85
2022-10-11T16:12:15.424Z,2.35
2022-10-11T16:14:47.096Z,2.75
2022-10-11T16:17:13.854Z,2.25
2022-10-11T16:19:40.333Z,1.80
2022-10-11T16:22:07.878Z,2.42
2022-10-11T16:24:37.374Z,1.70
2022-10-11T16:27:03.961Z,2.40
2022-10-11T16:29:30.469Z,1.90
2022-10-11T16:31:56.989Z,1.95
2022-10-11T16:34:23.688Z,2.10
2022-10-11T16:36:50.197Z,2.00
2022-10-11T16:39:18.402Z,2.08
2022-10-11T16:41:45.704Z,2.03
2022-10-11T16:44:18.855Z,2.22
2022-10-11T16:46:49.366Z,2.10
2022-10-11T16:49:17.580Z,2.15
2022-10-11T16:51:44.094Z,2.30
2022-10-11T16:54:10.630Z,3.30
2022-10-11T16:56:39.948Z,2.58
2022-10-11T16:59:08.373Z,2.85
2022-10-11T17:01:34.953Z,2.97
2022-10-11T17:04:01.452Z,2.60
2022-10-11T17:06:28.805Z,2.58
2022-10-11T17:08:55.338Z,2.72
2022-10-11T17:11:22.509Z,2.95
2022-10-11T17:13:50.189Z,2.83
2022-10-11T17:16:17.393Z,3.17
2022-10-11T17:18:43.899Z,2.67
2022-10-11T17:21:15.832Z,3.25
2022-10-11T17:23:42.928Z,3.40
2022-10-11T17:26:16.823Z,4.05
2022-10-11T17:28:43.839Z,3.60
2022-10-11T17:31:10.646Z,3.88
2022-10-11T17:33:37.257Z,3.63
2022-10-11T17:36:13.952Z,3.53
2022-10-11T17:38:40.471Z,3.67
2022-10-11T17:41:08.647Z,3.90
2022-10-11T17:43:35.444Z,3.50
2022-10-11T17:46:09.442Z,3.28
2022-10-11T17:48:37.050Z,4.15
2022-10-11T17:51:12.703Z,3.10
2022-10-11T17:53:39.466Z,4.30
2022-10-11T17:56:12.635Z,3.75
2022-10-11T17:58:39.421Z,3.83
2022-10-11T18:01:09.508Z,3.05
2022-10-11T18:03:36.900Z,2.80
2022-10-11T18:06:08.426Z,3.45
2022-10-11T18:08:40.248Z,3.25
2022-10-11T18:11:12.623Z,3.20
2022-10-11T18:13:42.984Z,2.58
2022-10-11T18:16:10.761Z,2.97
2022-10-11T18:18:38.024Z,2.65
2022-10-11T18:21:04.907Z,3.00
2022-10-11T18:23:31.483Z,3.35
2022-10-11T18:25:58.028Z,3.10
2022-10-11T18:28:24.947Z,3.22
2022-10-11T18:30:53.214Z,2.97
2022-10-11T18:33:19.731Z,2.25
2022-10-11T18:35:47.713Z,2.15
2022-10-11T18:38:14.142Z,2.50
2022-10-11T18:40:46.159Z,2.88
2022-10-11T18:43:13.558Z,2.05
2022-10-11T18:45:39.991Z,2.38
2022-10-11T18:48:08.653Z,2.10
2022-10-11T18:50:35.689Z,2.10
2022-10-11T18:53:02.421Z,1.88
2022-10-11T18:55:31.732Z,2.33
2022-10-11T18:57:58.204Z,1.98
2022-10-11T19:00:40.512Z,2.65
2022-10-11T19:03:08.474Z,1.83
2022-10-11T19:05:38.642Z,2.20
2022-10-11T19:08:05.489Z,2.80
2022-10-11T19:10:33.930Z,2.25
2022-10-11T19:13:00.525Z,2.15
2022-10-11T19:15:28.946Z,2.65
2022-10-11T19:17:55.586Z,3.03
2022-10-11T19:20:22.097Z,3.63
2022-10-11T19:22:48.559Z,2.35
2022-10-11T19:25:15.969Z,2.78
2022-10-11T19:27:42.499Z,2.90
2022-10-11T19:30:09.283Z,2.28
2022-10-11T19:32:35.975Z,2.40
2022-10-11T19:35:02.510Z,2.45
2022-10-11T19:37:29.208Z,2.63
2022-10-11T19:39:55.933Z,2.42
2022-10-11T19:42:22.423Z,2.67
2022-10-11T19:44:48.891Z,2.28
2022-10-11T19:47:16.974Z,2.70
2022-10-11T19:49:43.451Z,2.33
2022-10-11T19:52:10.333Z,1.90
2022-10-11T19:54:36.866Z,2.28
2022-10-11T19:57:03.485Z,2.03
2022-10-11T19:59:29.968Z,2.10
2022-10-11T20:01:56.975Z,3.00
2022-10-11T20:04:51.036Z,2.42
2022-10-11T20:07:13.643Z,2.45
2022-10-11T20:09:40.131Z,3.28
2022-10-11T20:12:06.830Z,2.90
2022-10-11T20:14:33.340Z,2.53
2022-10-11T20:16:59.805Z,2.30
2022-10-11T20:19:31.228Z,2.13
2022-10-11T20:21:58.662Z,2.20
2022-10-11T20:24:27.488Z,2.63
2022-10-11T20:26:54.110Z,2.55
2022-10-11T20:29:20.646Z,2.20
2022-10-11T20:31:50.000Z,3.13
2022-10-11T20:34:16.556Z,2.63
2022-10-11T20:36:48.227Z,3.15
2022-10-11T20:39:15.958Z,3.83
2022-10-11T20:41:43.002Z,2.92
2022-10-11T20:44:11.011Z,2.40
2022-10-11T20:46:39.035Z,2.20
2022-10-11T20:49:09.766Z,2.35
2022-10-11T20:51:38.509Z,3.17
2022-10-11T20:54:05.354Z,2.80
2022-10-11T20:56:32.463Z,3.35
2022-10-11T20:58:58.937Z,3.00
2022-10-11T21:01:31.277Z,2.67
2022-10-11T21:03:59.582Z,3.03
2022-10-11T21:06:26.767Z,2.75
2022-10-11T21:08:55.370Z,2.92
2022-10-11T21:11:25.176Z,3.30
2022-10-11T21:13:59.182Z,2.85
2022-10-11T21:16:27.506Z,3.60
2022-10-11T21:18:55.545Z,2.55
2022-10-11T21:21:25.867Z,3.10
2022-10-11T21:23:56.990Z,2.75
2022-10-11T21:26:23.650Z,3.42
2022-10-11T21:28:50.440Z,3.30
2022-10-11T21:31:20.106Z,2.92
2022-10-11T21:33:46.739Z,3.55
2022-10-11T21:36:16.268Z,3.17
2022-10-11T21:38:43.496Z,3.22
2022-10-11T21:41:21.861Z,2.63
2022-10-11T21:43:48.596Z,2.85
2022-10-11T21:46:17.578Z,3.15
2022-10-11T21:48:44.105Z,2.70
2022-10-11T21:51:22.981Z,2.72
2022-10-11T21:53:49.512Z,3.13
2022-10-11T21:56:16.112Z,3.10
2022-10-11T21:58:43.126Z,2.78
2022-10-11T22:01:10.868Z,3.20
2022-10-11T22:03:37.475Z,3.30
2022-10-11T22:06:05.111Z,4.35
2022-10-11T22:08:31.724Z,3.17
2022-10-11T22:11:00.050Z,3.28
2022-10-11T22:13:27.994Z,3.55
2022-10-11T22:15:56.351Z,4.00
2022-10-11T22:18:23.801Z,5.20
2022-10-11T22:20:52.777Z,4.90
2022-10-11T22:23:19.318Z,4.55
2022-10-11T22:25:45.971Z,4.82
2022-10-11T22:28:13.189Z,4.90
2022-10-11T22:30:39.722Z,4.93
2022-10-11T22:33:06.180Z,4.25
2022-10-11T22:35:37.336Z,4.25
2022-10-11T22:38:05.646Z,3.60
2022-10-11T22:40:32.179Z,3.35
2022-10-11T22:42:58.632Z,2.97
2022-10-11T22:45:25.118Z,3.10
2022-10-11T22:47:51.549Z,2.80
2022-10-11T22:50:18.137Z,3.65
2022-10-11T22:52:44.644Z,4.22
2022-10-11T22:55:12.573Z,3.58
2022-10-11T22:57:40.635Z,3.80
2022-10-11T23:00:07.806Z,3.65
2022-10-11T23:02:34.296Z,3.13
2022-10-11T23:05:00.813Z,3.30
2022-10-11T23:07:27.237Z,3.10
2022-10-11T23:09:53.716Z,3.90
2022-10-11T23:12:21.202Z,3.33
2022-10-11T23:14:47.641Z,5.05
2022-10-11T23:17:14.066Z,3.17
2022-10-11T23:19:40.594Z,3.38
2022-10-11T23:22:07.131Z,3.13
2022-10-11T23:24:33.579Z,3.35
2022-10-11T23:27:01.006Z,3.60
2022-10-11T23:29:32.231Z,2.78
2022-10-11T23:31:58.714Z,2.90
2022-10-11T23:34:25.219Z,2.60
2022-10-11T23:36:51.677Z,2.67
2022-10-11T23:39:21.465Z,3.03
2022-10-11T23:41:47.925Z,3.13
2022-10-11T23:44:14.358Z,3.35
2022-10-11T23:46:40.925Z,2.90
2022-10-11T23:49:07.417Z,2.97
2022-10-11T23:51:33.894Z,2.45
2022-10-11T23:54:01.204Z,3.05
2022-10-11T23:56:27.635Z,2.38
2022-10-11T23:58:54.183Z,2.22
